Time;durP1;ratioP1;P1;durP2;ratioP2;P2;SDS_P1;SDS_P2;PMS_P1;PMS_P2;Temp;Humidity;BMP_temperature;BMP_pressure;BME280_temperature;BME280_humidity;BME280_pressure;Samples;Min_cycle;Max_cycle;Signal;HPM_P1;HPM_P2
2023/03/22 00:02:25;;;;;;;16.83;14.85;;;12.30;99.90;;;;;;5042445;28;20199;-73
2023/03/22 00:04:54;;;;;;;16.90;14.90;;;12.30;99.90;;;;;;5044787;28;20668;-76
2023/03/22 00:07:21;;;;;;;17.45;15.57;;;12.30;99.90;;;;;;5043503;28;20214;-75
2023/03/22 00:09:48;;;;;;;16.48;14.75;;;12.30;99.90;;;;;;5044961;28;20326;-72
2023/03/22 00:12:15;;;;;;;16.60;14.57;;;12.30;99.90;;;;;;5044107;28;20230;-71
2023/03/22 00:14:42;;;;;;;15.63;14.02;;;12.20;99.90;;;;;;5041637;28;20735;-77
2023/03/22 00:17:09;;;;;;;15.93;13.75;;;12.20;99.90;;;;;;5039310;28;20323;-72
2023/03/22 00:19:36;;;;;;;15.77;13.85;;;12.20;99.90;;;;;;5040708;28;20310;-77
2023/03/22 00:22:05;;;;;;;17.45;14.63;;;12.20;99.90;;;;;;5050597;28;20209;-74
2023/03/22 00:24:32;;;;;;;14.57;12.85;;;12.20;99.90;;;;;;5045317;28;20731;-74
2023/03/22 00:26:59;;;;;;;15.27;13.07;;;12.20;99.90;;;;;;5043892;28;20218;-73
2023/03/22 00:29:26;;;;;;;14.13;12.63;;;12.20;99.90;;;;;;5041354;28;20231;-74
2023/03/22 00:31:54;;;;;;;15.52;13.90;;;12.20;99.90;;;;;;5039405;28;20200;-77
2023/03/22 00:34:22;;;;;;;17.38;15.40;;;12.20;99.90;;;;;;5043357;28;20219;-74
2023/03/22 00:36:50;;;;;;;17.60;15.35;;;12.20;99.90;;;;;;5043912;28;20214;-74
2023/03/22 00:39:18;;;;;;;15.52;13.93;;;12.20;99.90;;;;;;5046330;28;20219;-76
2023/03/22 00:41:46;;;;;;;16.42;14.65;;;12.10;99.90;;;;;;5041535;28;20269;-73
2023/03/22 00:44:13;;;;;;;17.20;15.32;;;12.10;99.90;;;;;;5041231;28;20205;-73
2023/03/22 00:46:40;;;;;;;17.90;15.90;;;12.00;99.90;;;;;;5043055;28;20226;-75
2023/03/22 00:49:07;;;;;;;19.77;16.65;;;11.90;99.90;;;;;;5046482;28;20222;-76
2023/03/22 00:51:34;;;;;;;17.88;15.73;;;11.80;99.90;;;;;;5047626;28;20215;-73
2023/03/22 00:54:01;;;;;;;17.25;15.00;;;11.70;99.90;;;;;;5040208;28;20720;-75
2023/03/22 00:56:32;;;;;;;18.52;15.77;;;11.70;99.90;;;;;;5039629;28;20204;-74
2023/03/22 00:58:59;;;;;;;19.80;16.60;;;11.70;99.90;;;;;;5039052;28;20269;-75
2023/03/22 01:01:26;;;;;;;17.42;15.40;;;11.80;99.90;;;;;;5040570;28;20263;-72
2023/03/22 01:03:53;;;;;;;17.75;15.27;;;11.80;99.90;;;;;;5039631;28;20254;-75
2023/03/22 01:06:20;;;;;;;16.30;14.60;;;11.80;99.90;;;;;;5041147;28;20273;-73
2023/03/22 01:08:49;;;;;;;16.17;14.57;;;11.80;99.90;;;;;;5039478;28;20231;-73
2023/03/22 01:11:17;;;;;;;15.93;14.23;;;11.80;99.90;;;;;;5039079;28;20633;-73
2023/03/22 01:13:46;;;;;;;16.55;14.70;;;11.80;99.90;;;;;;5037654;28;20210;-73
2023/03/22 01:16:14;;;;;;;15.50;13.88;;;11.80;99.90;;;;;;5041188;28;20252;-71
2023/03/22 01:18:41;;;;;;;16.30;14.60;;;11.80;99.90;;;;;;5041024;28;20368;-75
2023/03/22 01:21:08;;;;;;;16.83;14.38;;;11.80;99.90;;;;;;5047757;28;20249;-75
2023/03/22 01:23:35;;;;;;;15.75;14.10;;;11.80;99.90;;;;;;5038933;28;20204;-72
2023/03/22 01:26:03;;;;;;;15.60;13.70;;;11.80;99.90;;;;;;5036096;28;20202;-77
2023/03/22 01:28:30;;;;;;;16.20;14.27;;;11.90;99.90;;;;;;5043061;28;20227;-74
2023/03/22 01:31:01;;;;;;;15.13;13.40;;;11.80;99.90;;;;;;5042227;28;20214;-72
2023/03/22 01:33:28;;;;;;;15.30;13.77;;;11.90;99.90;;;;;;5041544;28;20231;-73
2023/03/22 01:35:55;;;;;;;15.60;13.98;;;11.90;99.90;;;;;;5042747;28;20242;-71
2023/03/22 01:38:22;;;;;;;14.35;12.85;;;11.80;99.90;;;;;;5037854;28;20242;-73
2023/03/22 01:40:49;;;;;;;16.55;14.85;;;11.80;99.90;;;;;;5042387;28;20239;-74
2023/03/22 01:43:17;;;;;;;16.40;14.70;;;11.80;99.90;;;;;;5036742;28;20264;-74
2023/03/22 01:45:46;;;;;;;15.95;13.95;;;11.80;99.90;;;;;;5039373;28;20619;-74
2023/03/22 01:48:21;;;;;;;15.48;13.80;;;11.80;99.90;;;;;;5038697;28;20220;-74
2023/03/22 01:51:05;;;;;;;14.18;12.75;;;11.80;99.90;;;;;;5040613;28;20222;-75
2023/03/22 01:53:36;;;;;;;14.32;12.82;;;11.80;99.90;;;;;;5038774;28;20203;-73
2023/03/22 01:56:04;;;;;;;15.02;13.43;;;11.80;99.90;;;;;;5041365;28;20243;-73
2023/03/22 01:58:34;;;;;;;14.68;13.18;;;11.90;99.90;;;;;;5040436;28;20238;-72
2023/03/22 02:01:01;;;;;;;15.10;13.50;;;11.90;99.90;;;;;;5038748;28;20234;-73
2023/03/22 02:03:37;;;;;;;13.73;12.32;;;11.90;99.90;;;;;;5039929;28;20269;-74
2023/03/22 02:06:05;;;;;;;15.80;14.13;;;11.90;99.90;;;;;;5037708;28;20202;-75
2023/03/22 02:08:32;;;;;;;15.13;13.52;;;11.90;99.90;;;;;;5034683;28;20239;-73
2023/03/22 02:11:01;;;;;;;16.48;14.70;;;11.80;99.90;;;;;;5040096;28;20207;-73
2023/03/22 02:13:56;;;;;;;15.68;14.05;;;11.80;99.90;;;;;;5038750;28;20210;-71
2023/03/22 02:16:34;;;;;;;16.88;14.13;;;11.80;99.90;;;;;;5034638;28;20231;-79
2023/03/22 02:19:28;;;;;;;15.30;13.75;;;11.70;99.90;;;;;;5050626;28;20227;-76
2023/03/22 02:22:37;;;;;;;15.45;13.73;;;11.70;99.90;;;;;;5040890;28;20218;-72
2023/03/22 02:25:36;;;;;;;15.82;14.13;;;11.60;99.90;;;;;;5003919;28;20198;-74
2023/03/22 02:28:19;;;;;;;16.42;14.40;;;11.60;99.90;;;;;;5042079;28;20250;-74
2023/03/22 02:31:16;;;;;;;14.30;12.80;;;11.50;99.90;;;;;;5037596;28;20225;-74
2023/03/22 02:34:31;;;;;;;15.30;13.70;;;11.60;99.90;;;;;;5044707;28;20237;-73
2023/03/22 02:37:22;;;;;;;15.95;13.52;;;11.60;99.90;;;;;;4990196;28;20261;-72
2023/03/22 02:39:53;;;;;;;13.82;12.48;;;11.60;99.90;;;;;;5037301;28;20397;-72
2023/03/22 02:42:36;;;;;;;15.77;14.10;;;11.60;99.90;;;;;;5041720;28;20226;-74
2023/03/22 02:45:10;;;;;;;14.60;13.10;;;11.60;99.90;;;;;;5043138;28;20195;-74
2023/03/22 02:47:42;;;;;;;15.93;13.82;;;11.60;99.90;;;;;;5041856;28;20624;-76
2023/03/22 02:50:15;;;;;;;15.32;13.73;;;11.60;99.90;;;;;;5044403;28;20207;-72
2023/03/22 02:52:46;;;;;;;15.20;13.70;;;11.60;99.90;;;;;;5042331;28;20785;-73
2023/03/22 02:55:20;;;;;;;14.52;13.02;;;11.60;99.90;;;;;;5053080;28;20211;-76
2023/03/22 02:57:52;;;;;;;13.32;12.02;;;11.60;99.90;;;;;;5054805;28;20207;-77
2023/03/22 03:00:19;;;;;;;13.20;11.90;;;11.60;99.90;;;;;;5052945;28;20225;-73
2023/03/22 03:02:50;;;;;;;14.23;12.80;;;11.60;99.90;;;;;;5040257;28;20200;-76
2023/03/22 03:05:21;;;;;;;13.77;12.43;;;11.60;99.90;;;;;;5037992;28;20206;-74
2023/03/22 03:07:52;;;;;;;14.45;13.00;;;11.70;99.90;;;;;;5042142;28;20234;-74
2023/03/22 03:10:22;;;;;;;13.50;12.10;;;11.60;99.90;;;;;;5042799;28;20265;-74
2023/03/22 03:12:49;;;;;;;15.23;13.63;;;11.60;99.90;;;;;;5047057;28;20273;-76
2023/03/22 03:15:19;;;;;;;16.27;13.82;;;11.50;99.90;;;;;;5046076;28;20311;-74
2023/03/22 03:18:04;;;;;;;17.00;15.20;;;11.50;99.90;;;;;;5052802;28;20199;-74
2023/03/22 03:20:45;;;;;;;15.75;14.07;;;11.50;99.90;;;;;;5047518;28;20206;-74
2023/03/22 03:23:24;;;;;;;16.02;14.32;;;11.50;99.90;;;;;;5044794;28;20203;-72
2023/03/22 03:26:01;;;;;;;15.35;13.73;;;11.50;99.90;;;;;;5045244;28;20226;-74
2023/03/22 03:28:38;;;;;;;14.23;12.82;;;11.40;99.90;;;;;;5045357;28;20689;-74
2023/03/22 03:31:14;;;;;;;13.50;12.15;;;11.40;99.90;;;;;;5044694;28;20210;-73
2023/03/22 03:33:48;;;;;;;14.65;12.98;;;11.40;99.90;;;;;;5041808;28;20677;-74
2023/03/22 03:36:18;;;;;;;16.73;14.93;;;11.40;99.90;;;;;;5040365;28;20760;-74
2023/03/22 03:38:50;;;;;;;14.95;13.35;;;11.40;99.90;;;;;;5046018;28;20248;-74
2023/03/22 03:41:22;;;;;;;15.27;13.60;;;11.30;99.90;;;;;;5043013;28;20203;-74
2023/03/22 03:43:50;;;;;;;15.55;14.05;;;11.30;99.90;;;;;;5043320;28;20266;-74
2023/03/22 03:46:17;;;;;;;14.38;12.88;;;11.30;99.90;;;;;;5041590;28;20231;-73
2023/03/22 03:48:47;;;;;;;15.55;13.95;;;11.30;99.90;;;;;;5041748;28;20220;-73
2023/03/22 03:51:15;;;;;;;16.38;13.52;;;11.30;99.90;;;;;;5041734;28;20205;-73
2023/03/22 03:53:42;;;;;;;15.82;14.13;;;11.30;99.90;;;;;;5044080;28;20214;-75
2023/03/22 03:56:10;;;;;;;15.65;14.05;;;11.20;99.90;;;;;;5042945;28;20214;-75
2023/03/22 03:58:38;;;;;;;14.20;12.77;;;11.20;99.90;;;;;;5042485;28;20336;-75
2023/03/22 04:01:05;;;;;;;15.48;13.88;;;11.20;99.90;;;;;;5041001;28;20267;-74
2023/03/22 04:03:32;;;;;;;13.95;12.55;;;11.20;99.90;;;;;;5042892;28;20274;-74
2023/03/22 04:05:59;;;;;;;14.70;13.18;;;11.20;99.90;;;;;;5041342;28;20231;-75
2023/03/22 04:08:27;;;;;;;13.48;12.18;;;11.10;99.90;;;;;;5041888;28;20219;-74
2023/03/22 04:10:54;;;;;;;13.73;12.32;;;11.20;99.90;;;;;;5040404;28;20196;-74
2023/03/22 04:13:23;;;;;;;13.10;11.70;;;11.10;99.90;;;;;;5043908;28;20382;-73
2023/03/22 04:15:56;;;;;;;12.82;11.52;;;11.10;99.90;;;;;;5053164;28;20222;-75
2023/03/22 04:18:23;;;;;;;15.15;13.65;;;11.20;99.90;;;;;;5044947;28;20322;-76
2023/03/22 04:20:52;;;;;;;15.77;14.02;;;11.20;99.90;;;;;;5042088;28;20209;-75
2023/03/22 04:23:21;;;;;;;15.73;13.48;;;11.10;99.90;;;;;;5039981;28;20213;-74
2023/03/22 04:25:49;;;;;;;13.98;12.50;;;11.20;99.90;;;;;;5043185;28;20287;-75
2023/03/22 04:28:18;;;;;;;14.68;13.18;;;11.20;99.90;;;;;;5042521;28;20274;-74
2023/03/22 04:30:49;;;;;;;15.30;13.70;;;11.20;99.90;;;;;;5040007;28;20222;-76
2023/03/22 04:33:18;;;;;;;14.27;12.77;;;11.20;99.90;;;;;;5043275;28;20221;-73
2023/03/22 04:35:46;;;;;;;12.93;11.63;;;11.20;99.90;;;;;;5043051;28;20778;-76
2023/03/22 04:38:13;;;;;;;12.18;10.90;;;11.20;99.90;;;;;;5043932;28;20219;-75
2023/03/22 04:40:45;;;;;;;12.77;11.50;;;11.20;99.90;;;;;;5043879;28;20666;-73
2023/03/22 04:43:14;;;;;;;13.52;12.23;;;11.20;99.90;;;;;;5043598;28;20214;-72
2023/03/22 04:45:42;;;;;;;13.23;12.02;;;11.10;99.90;;;;;;5042485;28;20299;-74
2023/03/22 04:48:10;;;;;;;13.55;12.25;;;11.10;99.90;;;;;;5047531;28;20230;-74
2023/03/22 04:50:39;;;;;;;13.52;12.18;;;11.10;99.90;;;;;;5041545;28;20213;-73
2023/03/22 04:53:07;;;;;;;14.13;12.63;;;11.10;99.90;;;;;;5045730;28;20206;-74
2023/03/22 04:55:34;;;;;;;13.85;12.50;;;11.00;99.90;;;;;;5042941;28;20262;-72
2023/03/22 04:58:01;;;;;;;14.93;13.43;;;11.00;99.90;;;;;;5045063;28;20284;-73
2023/03/22 05:00:29;;;;;;;16.50;14.50;;;10.90;99.90;;;;;;5042702;28;20210;-73
2023/03/22 05:02:57;;;;;;;15.02;13.50;;;10.90;99.90;;;;;;5047735;28;20207;-73
2023/03/22 05:05:24;;;;;;;15.43;13.90;;;10.90;99.90;;;;;;5044156;28;20259;-78
2023/03/22 05:07:52;;;;;;;14.32;12.82;;;10.80;99.90;;;;;;5046023;28;20234;-73
2023/03/22 05:10:19;;;;;;;14.88;13.38;;;10.80;99.90;;;;;;5044582;28;20252;-73
2023/03/22 05:12:46;;;;;;;15.07;13.57;;;10.80;99.90;;;;;;5045749;28;20198;-74
2023/03/22 05:15:14;;;;;;;15.60;14.05;;;10.70;99.90;;;;;;5046283;28;20227;-74
2023/03/22 05:17:41;;;;;;;15.57;13.85;;;10.70;99.90;;;;;;5047467;28;20230;-74
2023/03/22 05:20:09;;;;;;;16.50;14.73;;;10.60;99.90;;;;;;5043525;28;20195;-73
2023/03/22 05:22:39;;;;;;;15.38;13.77;;;10.60;99.90;;;;;;5046030;28;20282;-73
2023/03/22 05:25:09;;;;;;;14.18;12.75;;;10.60;99.90;;;;;;5043624;28;20253;-73
2023/03/22 05:27:37;;;;;;;14.35;12.85;;;10.60;99.90;;;;;;5040986;28;20240;-73
2023/03/22 05:30:06;;;;;;;14.85;13.32;;;10.60;99.90;;;;;;5042454;28;20213;-74
2023/03/22 05:32:36;;;;;;;15.40;13.40;;;10.60;99.90;;;;;;5040789;28;20217;-74
2023/03/22 05:35:04;;;;;;;15.65;14.15;;;10.60;99.90;;;;;;5044309;28;20210;-73
2023/03/22 05:37:31;;;;;;;15.20;13.70;;;10.50;99.90;;;;;;5043319;28;20211;-72
2023/03/22 05:39:58;;;;;;;15.00;13.50;;;10.50;99.90;;;;;;5044792;28;20295;-74
2023/03/22 05:42:27;;;;;;;15.18;13.63;;;10.50;99.90;;;;;;5041751;28;20598;-74
2023/03/22 05:44:54;;;;;;;14.90;13.40;;;10.50;99.90;;;;;;5038328;28;20661;-74
2023/03/22 05:47:21;;;;;;;15.73;14.10;;;10.50;99.90;;;;;;5042839;28;20751;-75
2023/03/22 05:49:48;;;;;;;16.15;14.00;;;10.50;99.90;;;;;;5044672;28;20257;-73
2023/03/22 05:52:15;;;;;;;15.65;14.05;;;10.50;99.90;;;;;;5043700;28;20751;-74
2023/03/22 05:54:42;;;;;;;15.05;13.45;;;10.50;99.90;;;;;;5037978;28;20203;-74
2023/03/22 05:57:09;;;;;;;15.07;13.57;;;10.50;99.90;;;;;;5041591;28;20234;-77
2023/03/22 05:59:37;;;;;;;14.63;13.10;;;10.50;99.90;;;;;;5044066;28;20233;-76
2023/03/22 06:02:04;;;;;;;15.02;13.57;;;10.50;99.90;;;;;;5042209;28;20241;-73
2023/03/22 06:04:31;;;;;;;14.43;12.93;;;10.60;99.90;;;;;;5045706;28;20198;-74
2023/03/22 06:06:58;;;;;;;12.55;11.32;;;10.60;99.90;;;;;;5044765;28;20689;-73
2023/03/22 06:09:25;;;;;;;13.77;12.32;;;10.70;99.90;;;;;;5051405;28;20218;-77
2023/03/22 06:11:52;;;;;;;12.57;11.30;;;11.00;99.90;;;;;;5056615;28;20230;-75
2023/03/22 06:14:19;;;;;;;14.85;13.35;;;11.30;99.90;;;;;;5049627;28;20210;-74
2023/03/22 06:16:48;;;;;;;14.25;12.57;;;11.50;99.90;;;;;;5044228;28;20214;-74
2023/03/22 06:19:14;;;;;;;13.70;12.32;;;11.80;99.90;;;;;;5040841;28;20329;-73
2023/03/22 06:21:42;;;;;;;14.63;13.13;;;12.10;99.90;;;;;;5043760;28;20229;-71
2023/03/22 06:24:09;;;;;;;15.65;14.13;;;12.30;99.90;;;;;;5041621;28;20209;-76
2023/03/22 06:26:36;;;;;;;15.38;13.77;;;12.50;99.90;;;;;;5038193;28;20214;-74
2023/03/22 06:29:03;;;;;;;13.70;12.30;;;12.70;99.90;;;;;;5039925;28;20238;-75
2023/03/22 06:31:30;;;;;;;16.45;13.35;;;12.90;99.90;;;;;;5039777;28;20234;-74
2023/03/22 06:33:59;;;;;;;15.13;13.52;;;13.00;99.90;;;;;;5039107;28;20221;-75
2023/03/22 06:36:26;;;;;;;15.07;13.55;;;13.10;99.90;;;;;;5042100;28;20310;-74
2023/03/22 06:38:53;;;;;;;14.13;12.68;;;13.20;99.90;;;;;;5036310;28;20942;-73
2023/03/22 06:41:20;;;;;;;13.85;12.43;;;13.30;99.90;;;;;;5035494;28;20253;-76
2023/03/22 06:43:47;;;;;;;14.43;12.65;;;13.50;99.90;;;;;;5035287;28;20256;-74
2023/03/22 06:46:14;;;;;;;14.85;13.40;;;13.70;99.90;;;;;;5035909;28;20257;-75
2023/03/22 06:48:41;;;;;;;12.68;11.43;;;13.90;99.90;;;;;;5039352;28;20284;-75
2023/03/22 06:51:09;;;;;;;12.85;11.65;;;14.10;99.90;;;;;;5038748;28;20207;-76
2023/03/22 06:53:36;;;;;;;12.52;11.30;;;14.10;99.90;;;;;;5042530;28;20194;-74
2023/03/22 06:56:04;;;;;;;12.00;10.90;;;14.30;99.90;;;;;;5040632;28;20223;-75
2023/03/22 06:58:31;;;;;;;13.38;12.02;;;14.40;99.90;;;;;;5039675;28;20245;-76
2023/03/22 07:00:57;;;;;;;12.88;11.50;;;14.60;99.90;;;;;;5039637;28;20233;-75
2023/03/22 07:03:24;;;;;;;11.90;10.70;;;14.60;99.90;;;;;;5041236;28;20260;-76
2023/03/22 07:05:51;;;;;;;11.15;10.07;;;14.70;99.90;;;;;;5037467;28;20231;-74
2023/03/22 07:08:20;;;;;;;11.85;10.70;;;14.90;99.90;;;;;;5035165;28;20246;-78
2023/03/22 07:10:50;;;;;;;11.98;10.77;;;15.00;99.90;;;;;;5042372;28;20222;-76
2023/03/22 07:13:17;;;;;;;12.30;11.05;;;15.20;99.90;;;;;;5042304;28;20202;-73
2023/03/22 07:15:44;;;;;;;12.60;11.35;;;15.30;99.90;;;;;;5035954;28;20207;-75
2023/03/22 07:18:11;;;;;;;11.38;10.38;;;15.40;99.90;;;;;;5037030;28;20311;-76
2023/03/22 07:20:40;;;;;;;11.38;10.35;;;15.50;99.90;;;;;;5034887;28;20252;-74
2023/03/22 07:23:07;;;;;;;11.52;10.38;;;15.60;99.90;;;;;;5036102;28;20212;-75
2023/03/22 07:25:35;;;;;;;11.38;10.38;;;15.70;99.90;;;;;;5031413;28;20466;-75
2023/03/22 07:28:02;;;;;;;10.95;9.85;;;15.80;99.90;;;;;;5034262;28;20996;-76
2023/03/22 07:30:29;;;;;;;10.98;9.95;;;15.90;99.90;;;;;;5033344;28;20750;-74
2023/03/22 07:32:56;;;;;;;12.88;11.48;;;15.80;99.90;;;;;;5031729;28;20235;-75
2023/03/22 07:35:24;;;;;;;11.65;10.48;;;15.90;99.90;;;;;;5037163;28;20210;-75
2023/03/22 07:37:51;;;;;;;11.90;10.80;;;15.90;99.90;;;;;;5035484;28;20226;-78
2023/03/22 07:40:19;;;;;;;12.00;10.90;;;16.00;99.90;;;;;;5038467;28;20203;-74
2023/03/22 07:42:49;;;;;;;11.82;10.38;;;16.20;99.90;;;;;;5033813;28;20202;-76
2023/03/22 07:45:17;;;;;;;13.15;11.77;;;16.30;99.90;;;;;;5038685;28;20203;-74
2023/03/22 07:47:44;;;;;;;11.60;10.13;;;16.40;99.90;;;;;;5035983;28;20200;-74
2023/03/22 07:50:12;;;;;;;11.65;10.45;;;16.60;99.90;;;;;;5032762;28;20270;-75
2023/03/22 07:52:39;;;;;;;11.05;10.05;;;16.70;99.90;;;;;;5035011;28;20282;-75
2023/03/22 07:55:06;;;;;;;12.05;10.82;;;17.00;99.90;;;;;;5037396;28;20210;-74
2023/03/22 07:57:33;;;;;;;11.45;10.35;;;17.20;99.90;;;;;;5032250;28;20290;-77
2023/03/22 08:00:03;;;;;;;12.00;10.85;;;17.20;99.90;;;;;;5035052;28;20199;-75
2023/03/22 08:02:30;;;;;;;12.93;11.73;;;17.20;99.90;;;;;;5031795;28;20215;-75
2023/03/22 08:04:57;;;;;;;12.55;11.43;;;17.20;99.90;;;;;;5032079;28;20206;-76
2023/03/22 08:07:24;;;;;;;12.55;11.35;;;17.20;99.90;;;;;;5036737;28;20231;-76
2023/03/22 08:09:51;;;;;;;11.85;10.65;;;17.40;99.90;;;;;;5041954;28;20280;-74
2023/03/22 08:12:19;;;;;;;11.80;10.60;;;17.40;99.90;;;;;;5036506;28;20268;-76
2023/03/22 08:14:49;;;;;;;10.98;10.02;;;17.60;99.90;;;;;;5030182;28;20231;-77
2023/03/22 08:17:18;;;;;;;11.68;10.55;;;17.80;99.90;;;;;;5035144;28;20596;-78
2023/03/22 08:19:45;;;;;;;11.63;10.55;;;18.00;99.90;;;;;;5030344;28;20994;-74
2023/03/22 08:22:14;;;;;;;12.35;10.63;;;17.80;99.90;;;;;;5030113;28;20262;-78
2023/03/22 08:24:41;;;;;;;10.93;9.95;;;17.80;99.90;;;;;;5033195;28;20223;-74
2023/03/22 08:27:08;;;;;;;11.57;10.48;;;17.80;99.90;;;;;;5033719;28;20272;-76
2023/03/22 08:29:36;;;;;;;11.48;10.35;;;17.90;99.90;;;;;;5029444;28;20304;-76
2023/03/22 08:32:04;;;;;;;11.98;10.77;;;18.10;99.90;;;;;;5032483;28;20314;-75
2023/03/22 08:34:37;;;;;;;11.10;10.00;;;18.20;99.90;;;;;;5032423;28;20311;-73
2023/03/22 08:37:05;;;;;;;12.80;10.30;;;18.50;99.90;;;;;;5034504;28;20314;-75
2023/03/22 08:39:32;;;;;;;12.63;10.05;;;18.60;99.90;;;;;;5028923;28;20745;-76
2023/03/22 08:41:59;;;;;;;12.40;10.95;;;18.80;99.90;;;;;;5030094;28;20211;-75
2023/03/22 08:44:26;;;;;;;11.57;10.48;;;18.90;99.90;;;;;;5029753;28;20825;-74
2023/03/22 08:46:53;;;;;;;11.60;10.50;;;18.90;99.90;;;;;;5032210;28;20319;-74
2023/03/22 08:49:20;;;;;;;11.77;10.57;;;18.90;99.90;;;;;;5031261;28;20301;-74
2023/03/22 08:51:48;;;;;;;11.32;10.23;;;19.00;99.90;;;;;;5031453;28;20219;-75
2023/03/22 08:54:15;;;;;;;11.43;10.27;;;19.20;99.90;;;;;;5029807;28;20285;-77
2023/03/22 08:56:42;;;;;;;12.10;10.85;;;19.20;99.90;;;;;;5030083;28;20215;-74
2023/03/22 08:59:10;;;;;;;11.55;10.45;;;19.10;99.90;;;;;;5032026;28;20284;-74
2023/03/22 09:01:37;;;;;;;11.13;9.95;;;19.30;99.90;;;;;;5035250;28;20226;-75
2023/03/22 09:04:04;;;;;;;11.23;10.13;;;19.40;99.90;;;;;;5036911;28;21624;-75
2023/03/22 09:06:32;;;;;;;12.20;10.77;;;19.50;99.90;;;;;;5031337;28;20282;-74
2023/03/22 09:09:01;;;;;;;13.02;10.88;;;19.80;99.90;;;;;;5050354;28;21080;-75
2023/03/22 09:11:28;;;;;;;11.70;10.60;;;19.90;99.90;;;;;;5039942;28;20286;-75
2023/03/22 09:13:55;;;;;;;11.48;10.32;;;20.10;99.90;;;;;;5033920;28;20409;-74
2023/03/22 09:16:22;;;;;;;12.73;11.43;;;20.10;99.90;;;;;;5030555;28;20257;-75
2023/03/22 09:18:49;;;;;;;13.07;11.93;;;20.00;99.90;;;;;;5032393;28;20227;-74
2023/03/22 09:21:16;;;;;;;12.02;10.93;;;19.90;99.90;;;;;;5032334;28;20207;-74
2023/03/22 09:23:46;;;;;;;11.35;10.35;;;20.00;99.90;;;;;;5054789;28;20192;-74
2023/03/22 09:26:14;;;;;;;11.50;10.40;;;20.00;99.90;;;;;;5065364;28;20186;-76
2023/03/22 09:28:42;;;;;;;11.70;10.60;;;20.10;99.90;;;;;;5065546;28;20261;-75
2023/03/22 09:31:10;;;;;;;15.07;12.52;;;19.90;99.90;;;;;;5042492;28;20230;-74
2023/03/22 09:33:39;;;;;;;11.73;10.60;;;19.60;99.90;;;;;;5031454;28;20207;-74
2023/03/22 09:36:07;;;;;;;12.18;10.98;;;19.80;99.90;;;;;;5026888;28;20292;-75
2023/03/22 09:38:35;;;;;;;11.25;10.15;;;20.30;99.90;;;;;;5029648;28;20260;-74
2023/03/22 09:41:05;;;;;;;11.20;10.10;;;20.60;99.90;;;;;;5030984;28;20199;-74
2023/03/22 09:43:37;;;;;;;13.02;11.48;;;20.60;99.90;;;;;;5028374;28;20312;-74
2023/03/22 09:46:08;;;;;;;13.02;11.82;;;20.80;99.90;;;;;;5026915;28;20202;-74
2023/03/22 09:48:39;;;;;;;13.05;11.75;;;21.10;99.90;;;;;;5033623;28;20390;-75
2023/03/22 09:51:14;;;;;;;11.13;10.13;;;21.10;99.90;;;;;;5032704;28;20198;-74
2023/03/22 09:53:41;;;;;;;12.57;11.30;;;20.90;99.90;;;;;;5034397;28;20735;-75
2023/03/22 09:56:17;;;;;;;15.05;12.18;;;20.90;99.90;;;;;;5029772;28;20257;-74
2023/03/22 09:58:50;;;;;;;13.10;11.40;;;20.90;99.90;;;;;;5028023;28;20242;-74
2023/03/22 10:01:27;;;;;;;13.30;12.00;;;20.80;99.90;;;;;;5028726;28;20274;-76
2023/03/22 10:04:19;;;;;;;13.65;12.32;;;20.80;99.90;;;;;;5031255;28;20252;-75
2023/03/22 10:06:50;;;;;;;11.65;10.55;;;21.00;99.90;;;;;;5049950;28;20195;-75
2023/03/22 10:09:26;;;;;;;12.52;11.32;;;21.20;99.90;;;;;;5029619;28;20276;-74
2023/03/22 10:12:03;;;;;;;16.00;13.05;;;21.30;99.90;;;;;;5031889;28;20293;-74
2023/03/22 10:14:37;;;;;;;13.40;12.10;;;21.20;99.90;;;;;;5031172;28;20230;-75
2023/03/22 10:17:08;;;;;;;13.48;12.27;;;21.30;99.90;;;;;;5029155;28;20308;-74
2023/03/22 10:19:43;;;;;;;14.35;12.95;;;21.50;99.90;;;;;;5027828;28;20226;-76
2023/03/22 10:22:15;;;;;;;12.57;11.27;;;21.50;99.90;;;;;;5032499;28;20232;-73
2023/03/22 10:24:46;;;;;;;14.40;13.02;;;21.60;99.90;;;;;;5028528;28;20289;-75
2023/03/22 10:27:17;;;;;;;13.02;11.70;;;21.70;99.90;;;;;;5029853;28;20256;-74
2023/03/22 10:29:50;;;;;;;14.00;12.65;;;21.30;99.90;;;;;;5031322;28;20223;-73
2023/03/22 10:32:20;;;;;;;13.13;11.93;;;21.20;99.90;;;;;;5033569;28;20243;-75
2023/03/22 10:34:48;;;;;;;12.45;11.32;;;21.40;99.90;;;;;;5031917;28;20255;-74
2023/03/22 10:37:18;;;;;;;14.48;12.95;;;21.60;99.90;;;;;;5029785;28;20321;-75
2023/03/22 10:39:48;;;;;;;14.75;13.32;;;21.60;99.90;;;;;;5030480;28;20251;-76
2023/03/22 10:42:19;;;;;;;16.38;14.88;;;21.30;99.90;;;;;;5028847;28;20222;-74
2023/03/22 10:44:50;;;;;;;14.30;12.95;;;21.30;99.90;;;;;;5029013;28;20281;-75
2023/03/22 10:47:22;;;;;;;15.57;13.90;;;21.50;99.90;;;;;;5030154;28;20245;-74
2023/03/22 10:49:53;;;;;;;16.40;14.80;;;21.70;99.90;;;;;;5035123;28;20885;-75
2023/03/22 10:52:32;;;;;;;16.30;14.65;;;21.70;99.90;;;;;;5033823;28;20200;-74
2023/03/22 10:54:59;;;;;;;14.95;13.45;;;21.50;99.90;;;;;;5031699;28;20195;-75
2023/03/22 10:57:26;;;;;;;16.10;14.50;;;21.40;99.90;;;;;;5032751;28;20214;-73
2023/03/22 10:59:57;;;;;;;17.75;15.90;;;21.70;99.90;;;;;;5032444;28;20396;-75
2023/03/22 11:04:10;;;;;;;19.00;17.20;;;22.20;99.90;;;;;;5116460;27;20497;-74
2023/03/22 11:06:39;;;;;;;18.42;16.23;;;22.30;99.90;;;;;;5116975;27;20287;-74
2023/03/22 11:09:12;;;;;;;18.15;16.45;;;22.30;99.90;;;;;;5103350;27;20232;-76
2023/03/22 11:11:47;;;;;;;17.67;16.08;;;22.10;99.90;;;;;;5104775;27;20207;-76
2023/03/22 11:14:19;;;;;;;19.35;17.45;;;22.30;99.90;;;;;;5110580;27;20252;-73
2023/03/22 11:16:52;;;;;;;18.40;16.70;;;22.50;99.90;;;;;;5104108;28;20203;-74
2023/03/22 11:19:25;;;;;;;19.77;17.75;;;22.40;99.90;;;;;;5105126;27;20252;-76
2023/03/22 11:21:52;;;;;;;22.65;20.33;;;22.00;99.90;;;;;;5105353;27;20252;-73
2023/03/22 11:24:20;;;;;;;17.58;15.88;;;21.60;99.90;;;;;;5104314;27;20257;-72
2023/03/22 11:27:03;;;;;;;18.15;16.25;;;21.50;99.90;;;;;;5107988;27;20216;-75
2023/03/22 11:29:40;;;;;;;18.58;16.63;;;21.40;99.90;;;;;;5104927;27;20217;-72
2023/03/22 11:32:21;;;;;;;17.10;15.38;;;21.30;99.90;;;;;;5106501;27;20651;-72
2023/03/22 11:35:00;;;;;;;16.50;14.85;;;21.40;99.90;;;;;;5103257;27;20208;-74
2023/03/22 11:37:27;;;;;;;15.90;14.40;;;21.40;99.90;;;;;;5105633;27;20204;-74
2023/03/22 11:40:00;;;;;;;17.02;15.02;;;21.50;99.90;;;;;;5108971;27;20328;-75
2023/03/22 11:42:27;;;;;;;18.80;16.92;;;21.40;99.90;;;;;;5110203;27;20220;-72
2023/03/22 11:44:56;;;;;;;16.15;14.65;;;21.50;99.90;;;;;;5104606;27;20325;-73
2023/03/22 11:47:26;;;;;;;16.35;14.80;;;21.40;99.90;;;;;;5103384;27;20200;-73
2023/03/22 11:49:55;;;;;;;17.55;15.80;;;21.50;99.90;;;;;;5104441;27;21256;-74
2023/03/22 11:52:25;;;;;;;15.52;14.00;;;21.50;99.90;;;;;;5106311;27;20193;-72
2023/03/22 11:54:54;;;;;;;18.55;16.80;;;21.60;99.90;;;;;;5106142;27;20241;-72
2023/03/22 11:57:25;;;;;;;18.85;16.92;;;21.70;99.90;;;;;;5107203;27;20199;-71
2023/03/22 11:59:58;;;;;;;18.02;16.33;;;21.50;99.90;;;;;;5108093;27;20224;-74
2023/03/22 12:02:29;;;;;;;19.33;17.40;;;21.40;99.90;;;;;;5116255;27;20245;-73
2023/03/22 12:05:11;;;;;;;22.05;19.77;;;21.50;99.90;;;;;;5120836;27;20242;-76
2023/03/22 12:07:41;;;;;;;21.75;19.48;;;21.50;99.90;;;;;;5105416;27;20197;-72
2023/03/22 12:10:15;;;;;;;22.20;20.05;;;21.80;99.90;;;;;;5110558;27;20196;-75
2023/03/22 12:12:46;;;;;;;22.83;20.63;;;21.90;99.90;;;;;;5105854;27;20189;-72
2023/03/22 12:15:21;;;;;;;19.02;17.13;;;22.10;99.90;;;;;;5091221;28;20360;-73
2023/03/22 12:17:55;;;;;;;21.73;19.48;;;22.10;99.90;;;;;;5090639;28;20247;-72
2023/03/22 12:20:34;;;;;;;22.40;20.27;;;22.00;99.90;;;;;;5088797;28;20231;-73
2023/03/22 12:23:02;;;;;;;22.05;20.05;;;21.90;99.90;;;;;;5090401;28;20687;-74
2023/03/22 12:25:33;;;;;;;20.23;18.33;;;21.80;99.90;;;;;;5094089;28;20208;-73
2023/03/22 12:28:05;;;;;;;21.10;18.95;;;21.80;99.90;;;;;;5094280;28;20501;-73
2023/03/22 12:30:40;;;;;;;19.33;17.33;;;22.10;99.90;;;;;;5094999;28;20203;-76
2023/03/22 12:33:14;;;;;;;20.67;18.73;;;22.50;99.90;;;;;;5092706;28;20228;-74
2023/03/22 12:35:45;;;;;;;18.08;16.38;;;22.70;99.90;;;;;;5095344;28;20290;-76
2023/03/22 12:38:23;;;;;;;21.17;19.08;;;22.70;99.90;;;;;;5094663;28;20457;-74
2023/03/22 12:40:52;;;;;;;20.63;18.73;;;22.80;99.90;;;;;;5091622;28;20205;-74
2023/03/22 12:43:31;;;;;;;21.23;19.10;;;22.60;99.90;;;;;;5092168;28;20276;-74
2023/03/22 12:46:01;;;;;;;19.33;17.42;;;22.50;99.90;;;;;;5094989;28;20911;-76